Time;durP1;ratioP1;P1;durP2;ratioP2;P2;SDS_P1;SDS_P2;PMS_P1;PMS_P2;Temp;Humidity;BMP_temperature;BMP_pressure;BME280_temperature;BME280_humidity;BME280_pressure;Samples;Min_cycle;Max_cycle;Signal;HPM_P1;HPM_P2
2022/09/06 04:52:03;;;;;;;;;1.00;1.00;;;;;23.27;40.82;101880.07;110507;1261;13171;-49
2022/09/06 04:54:30;;;;;;;;;1.00;1.00;;;;;23.28;40.76;101879.28;110532;1261;14203;-47
2022/09/06 04:56:57;;;;;;;;;1.00;1.00;;;;;23.31;40.80;101881.16;110474;1261;13116;-46
2022/09/06 04:59:24;;;;;;;;;1.00;1.00;;;;;23.33;40.90;101882.89;110459;1261;14223;-46
2022/09/06 05:01:51;;;;;;;;;2.00;2.00;;;;;23.31;41.08;101887.23;110474;1262;13137;-46
2022/09/06 05:04:19;;;;;;;;;3.00;3.00;;;;;23.21;40.71;101888.30;110549;1261;14812;-48
2022/09/06 05:06:46;;;;;;;;;3.00;3.00;;;;;23.09;40.26;101885.16;110448;1261;14262;-47
2022/09/06 05:09:13;;;;;;;;;5.00;5.00;;;;;22.98;39.79;101882.66;110462;1262;14625;-45
2022/09/06 05:11:41;;;;;;;;;5.00;3.67;;;;;22.91;39.48;101882.21;110348;1262;15244;-47
2022/09/06 05:14:08;;;;;;;;;3.00;3.00;;;;;22.80;39.14;101884.59;110416;1261;14546;-46
2022/09/06 05:16:35;;;;;;;;;4.00;4.00;;;;;22.75;39.06;101884.63;109547;1261;1206957;-45
2022/09/06 05:19:02;;;;;;;;;6.00;6.00;;;;;22.73;38.76;101885.85;110548;1261;15276;-47
2022/09/06 05:21:30;;;;;;;;;5.00;5.00;;;;;22.67;38.50;101881.03;110591;1261;14748;-47
2022/09/06 05:23:57;;;;;;;;;5.00;5.00;;;;;22.61;38.46;101884.73;110477;1261;14060;-47
2022/09/06 05:26:24;;;;;;;;;5.00;5.00;;;;;22.60;38.34;101886.19;110480;1261;15121;-48
2022/09/06 05:28:52;;;;;;;;;7.00;5.50;;;;;22.59;38.22;101890.65;110424;1262;13062;-46
2022/09/06 05:31:19;;;;;;;;;6.00;5.67;;;;;22.61;38.09;101891.36;110405;1261;14142;-48
2022/09/06 05:33:46;;;;;;;;;7.00;7.00;;;;;22.64;37.95;101890.79;110490;1262;15803;-45
2022/09/06 05:36:14;;;;;;;;;5.50;5.00;;;;;22.67;37.81;101892.95;110561;1261;14611;-49
2022/09/06 05:38:41;;;;;;;;;5.33;5.33;;;;;22.61;37.67;101895.11;110425;1262;15235;-46
2022/09/06 05:41:08;;;;;;;;;7.00;7.00;;;;;22.62;37.65;101898.31;110371;1262;15359;-47
2022/09/06 05:43:35;;;;;;;;;8.33;7.33;;;;;22.62;37.54;101899.04;110455;1262;13238;-46
2022/09/06 05:46:03;;;;;;;;;5.00;5.00;;;;;22.57;37.38;101898.45;110406;1261;14760;-47
2022/09/06 05:48:30;;;;;;;;;6.00;5.33;;;;;22.55;37.47;101900.88;110496;1261;15152;-45
2022/09/06 05:50:58;;;;;;;;;7.33;5.00;;;;;22.57;37.36;101899.65;110475;1262;15431;-47
2022/09/06 05:53:25;;;;;;;;;7.00;7.00;;;;;22.60;37.27;101895.78;110508;1261;14111;-46
2022/09/06 05:55:52;;;;;;;;;6.00;6.00;;;;;22.58;37.21;101897.98;110515;1262;13147;-47
2022/09/06 05:58:19;;;;;;;;;5.67;5.67;;;;;22.48;37.03;101900.17;110486;1262;15126;-46
2022/09/06 06:00:47;;;;;;;;;5.00;5.00;;;;;22.35;37.04;101902.47;110518;1262;14950;-47
2022/09/06 06:03:14;;;;;;;;;5.50;5.50;;;;;22.34;37.04;101902.55;110455;1262;14471;-48
2022/09/06 06:05:41;;;;;;;;;6.67;6.00;;;;;22.36;37.03;101906.20;110429;1261;15015;-46
2022/09/06 06:08:09;;;;;;;;;6.00;6.00;;;;;22.31;36.97;101904.18;110316;1262;14784;-47
2022/09/06 06:10:38;;;;;;;;;5.00;5.00;;;;;22.25;37.00;101897.27;110404;1262;13039;-47
2022/09/06 06:13:06;;;;;;;;;6.00;6.00;;;;;22.19;36.94;101899.92;110336;1261;14729;-47
2022/09/06 06:15:33;;;;;;;;;6.33;6.00;;;;;22.24;36.93;101898.19;110416;1260;13080;-46
2022/09/06 06:18:00;;;;;;;;;9.00;7.00;;;;;22.25;36.82;101897.48;110397;1262;14206;-47
2022/09/06 06:20:28;;;;;;;;;8.50;8.00;;;;;22.22;36.73;101899.43;110317;1262;15438;-48
2022/09/06 06:22:55;;;;;;;;;5.00;5.00;;;;;22.26;36.70;101892.88;110506;1262;13209;-45
2022/09/06 06:25:25;;;;;;;;;6.00;5.67;;;;;22.07;36.83;101886.05;110492;1261;14932;-48
2022/09/06 06:27:52;;;;;;;;;7.00;6.00;;;;;22.17;36.66;101887.04;110526;1262;15754;-46
2022/09/06 06:30:19;;;;;;;;;6.00;6.00;;;;;22.16;36.69;101879.49;110570;1261;15221;-46
2022/09/06 06:32:47;;;;;;;;;7.33;6.67;;;;;22.20;36.65;101877.27;110642;1262;14446;-45
2022/09/06 06:35:14;;;;;;;;;6.33;6.33;;;;;22.28;36.79;101879.17;110572;1261;15104;-47
2022/09/06 06:37:41;;;;;;;;;6.00;6.00;;;;;22.30;36.83;101878.64;110506;1262;13061;-46
2022/09/06 06:40:08;;;;;;;;;6.00;6.00;;;;;22.37;37.10;101878.42;110388;1262;14574;-47
2022/09/06 06:42:36;;;;;;;;;6.00;6.00;;;;;22.50;37.18;101879.83;110476;1262;14589;-47
2022/09/06 06:45:03;;;;;;;;;6.00;5.33;;;;;22.63;37.23;101884.41;110441;1261;14998;-47
2022/09/06 06:47:30;;;;;;;;;5.00;5.00;;;;;22.71;37.30;101882.66;110456;1261;13755;-48
2022/09/06 06:49:57;;;;;;;;;5.00;5.00;;;;;22.78;37.53;101882.45;110462;1262;13118;-46
2022/09/06 06:52:25;;;;;;;;;5.00;5.00;;;;;22.83;37.81;101877.91;110482;1262;14561;-46
2022/09/06 06:54:52;;;;;;;;;6.00;6.00;;;;;22.83;37.89;101877.52;110458;1262;13977;-47
2022/09/06 06:57:19;;;;;;;;;6.00;5.50;;;;;22.87;37.97;101877.44;110533;1261;13267;-46
2022/09/06 06:59:47;;;;;;;;;6.00;5.00;;;;;22.92;37.95;101877.34;110423;1262;14383;-46
2022/09/06 07:02:16;;;;;;;;;5.00;5.00;;;;;22.88;38.05;101882.52;110460;1262;14056;-47
2022/09/06 07:04:43;;;;;;;;;6.00;6.00;;;;;22.92;37.93;101876.23;110480;1262;16609;-47
2022/09/06 07:07:10;;;;;;;;;5.00;5.00;;;;;22.92;37.94;101881.13;110482;1262;13750;-47
2022/09/06 07:09:38;;;;;;;;;5.33;5.33;;;;;22.92;37.77;101882.09;110324;1262;14738;-45
2022/09/06 07:12:05;;;;;;;;;6.00;6.00;;;;;23.03;37.72;101881.07;110452;1261;12851;-46
2022/09/06 07:14:32;;;;;;;;;5.00;5.00;;;;;22.98;37.63;101877.95;110342;1261;14826;-47
2022/09/06 07:16:59;;;;;;;;;5.00;5.00;;;;;23.02;37.72;101873.59;110195;1262;13339;-45
2022/09/06 07:19:27;;;;;;;;;5.33;5.33;;;;;23.05;37.54;101873.96;110435;1262;14505;-47
2022/09/06 07:21:56;;;;;;;;;7.00;7.00;;;;;22.94;37.34;101879.25;110529;1261;14704;-47
2022/09/06 07:24:23;;;;;;;;;7.33;7.00;;;;;22.82;37.30;101876.36;110537;1262;14711;-46
2022/09/06 07:26:51;;;;;;;;;5.00;5.00;;;;;22.73;37.28;101877.04;110450;1261;14001;-48
2022/09/06 07:29:18;;;;;;;;;7.33;7.00;;;;;22.63;37.30;101874.11;110463;1261;14665;-47
2022/09/06 07:31:45;;;;;;;;;7.00;6.00;;;;;22.51;37.51;101877.48;110469;1261;13233;-47
2022/09/06 07:34:13;;;;;;;;;6.00;6.00;;;;;22.68;37.30;101877.90;110460;1262;15220;-46
2022/09/06 07:36:40;;;;;;;;;10.00;8.00;;;;;22.69;37.11;101880.17;110405;1261;14252;-46
2022/09/06 07:39:07;;;;;;;;;7.00;7.00;;;;;22.63;37.09;101877.98;110486;1260;14567;-46
2022/09/06 07:41:35;;;;;;;;;8.00;8.00;;;;;22.67;37.11;101879.94;110421;1262;14168;-47
2022/09/06 07:44:02;;;;;;;;;8.00;7.33;;;;;22.70;37.09;101883.71;110488;1262;13577;-46
2022/09/06 07:46:29;;;;;;;;;5.50;5.50;;;;;22.53;37.29;101874.90;110453;1261;14363;-46
2022/09/06 07:48:56;;;;;;;;;30.00;24.67;;;;;22.73;37.27;101876.93;110438;1261;14142;-45
2022/09/06 07:51:24;;;;;;;;;54.67;44.00;;;;;22.81;36.98;101878.65;110390;1262;13124;-46
2022/09/06 07:53:51;;;;;;;;;61.67;46.00;;;;;22.82;36.97;101875.44;110459;1262;13317;-45
2022/09/06 07:56:18;;;;;;;;;48.33;38.00;;;;;22.83;36.97;101874.86;110420;1261;14156;-45
2022/09/06 07:58:45;;;;;;;;;41.00;30.00;;;;;22.77;36.91;101879.45;110443;1261;13213;-47
2022/09/06 08:01:13;;;;;;;;;32.00;27.00;;;;;22.75;36.92;101880.36;110391;1261;15430;-48
2022/09/06 08:03:40;;;;;;;;;24.00;20.00;;;;;22.83;36.93;101875.15;110446;1261;15561;-51
2022/09/06 08:06:07;;;;;;;;;22.33;19.33;;;;;22.95;36.97;101878.23;110379;1261;13769;-47
2022/09/06 08:08:34;;;;;;;;;15.33;13.67;;;;;23.07;36.86;101876.02;110526;1261;14612;-47
2022/09/06 08:11:02;;;;;;;;;21.00;15.67;;;;;23.16;36.83;101875.83;110434;1261;13176;-47
2022/09/06 08:13:29;;;;;;;;;11.00;10.50;;;;;23.25;36.84;101880.72;110411;1261;13311;-47
2022/09/06 08:15:56;;;;;;;;;14.33;12.33;;;;;23.20;36.95;101879.77;110344;1261;14277;-45
2022/09/06 08:18:23;;;;;;;;;12.00;12.00;;;;;23.23;37.24;101880.55;110402;1261;14358;-45
2022/09/06 08:20:51;;;;;;;;;7.00;7.00;;;;;23.25;37.14;101878.33;110372;1262;14686;-48
2022/09/06 08:23:18;;;;;;;;;6.00;6.00;;;;;23.23;37.20;101876.71;110409;1262;14698;-46
2022/09/06 08:25:45;;;;;;;;;6.50;6.00;;;;;23.15;37.31;101877.64;110538;1262;12788;-46
2022/09/06 08:28:12;;;;;;;;;7.00;6.67;;;;;23.18;37.44;101874.73;110541;1261;18107;-44
2022/09/06 08:30:39;;;;;;;;;6.33;6.00;;;;;23.17;37.31;101875.86;110506;1261;14239;-46
2022/09/06 08:33:07;;;;;;;;;5.67;5.00;;;;;23.19;37.44;101868.97;110562;1261;14865;-45
2022/09/06 08:35:34;;;;;;;;;6.00;6.00;;;;;23.19;37.31;101868.55;110497;1261;14438;-46
2022/09/06 08:38:01;;;;;;;;;6.67;6.67;;;;;23.15;37.01;101866.14;110457;1264;13161;-46
2022/09/06 08:40:28;;;;;;;;;5.67;5.67;;;;;22.98;36.74;101863.93;110410;1262;15228;-46
2022/09/06 08:42:56;;;;;;;;;6.33;5.67;;;;;22.66;36.56;101865.35;110476;1261;14934;-45
2022/09/06 08:45:23;;;;;;;;;5.00;5.00;;;;;22.35;36.79;101860.69;110372;1262;14687;-45
2022/09/06 08:47:51;;;;;;;;;6.00;6.00;;;;;22.42;36.82;101856.35;110455;1262;15339;-46
2022/09/06 08:50:18;;;;;;;;;7.00;6.00;;;;;22.48;36.78;101857.39;110476;1262;14212;-47
2022/09/06 08:52:46;;;;;;;;;7.00;7.00;;;;;22.50;36.61;101864.39;110515;1261;13177;-46
2022/09/06 08:55:13;;;;;;;;;7.00;6.00;;;;;22.16;36.85;101857.34;110492;1261;15065;-68
2022/09/06 08:57:40;;;;;;;;;6.00;6.00;;;;;22.20;36.84;101853.64;110488;1261;14207;-71
2022/09/06 09:00:09;;;;;;;;;7.00;6.00;;;;;22.34;36.76;101855.18;110433;1262;14473;-67
2022/09/06 09:02:36;;;;;;;;;5.00;5.00;;;;;22.38;36.57;101848.63;110650;1253;14061;-69
2022/09/06 09:05:04;;;;;;;;;5.00;5.00;;;;;22.54;36.56;101845.69;110428;1264;13100;-70
2022/09/06 09:07:31;;;;;;;;;5.00;5.00;;;;;22.43;36.34;101849.33;110261;1264;14747;-70
2022/09/06 09:09:58;;;;;;;;;5.00;5.00;;;;;22.58;36.54;101847.73;110455;1264;13285;-70
2022/09/06 09:12:26;;;;;;;;;5.00;5.00;;;;;22.91;36.40;101845.57;110384;1263;14380;-70
2022/09/06 09:14:53;;;;;;;;;5.00;5.00;;;;;23.13;36.28;101842.00;110421;1264;13196;-70
2022/09/06 09:17:21;;;;;;;;;5.00;5.00;;;;;23.26;36.42;101838.34;110428;1263;15969;-72
2022/09/06 09:19:49;;;;;;;;;5.00;3.67;;;;;23.33;36.28;101832.10;110459;1264;18149;-71
2022/09/06 09:22:16;;;;;;;;;3.00;2.67;;;;;23.35;36.30;101831.08;110467;1264;13140;-71
2022/09/06 09:24:43;;;;;;;;;3.67;3.67;;;;;23.36;36.39;101829.72;110390;1264;14219;-70
2022/09/06 09:27:12;;;;;;;;;5.00;5.00;;;;;23.38;36.39;101829.83;110426;1263;14794;-70
2022/09/06 09:29:39;;;;;;;;;3.00;3.00;;;;;23.39;36.53;101830.30;110342;1264;14487;-70
2022/09/06 09:32:06;;;;;;;;;3.00;3.00;;;;;23.40;36.55;101824.18;110507;1264;12716;-70
2022/09/06 09:34:33;;;;;;;;;5.00;5.00;;;;;23.42;36.57;101826.17;110450;1264;14285;-70
2022/09/06 09:37:01;;;;;;;;;5.00;4.33;;;;;23.42;36.51;101819.56;110477;1264;15476;-69
2022/09/06 09:39:28;;;;;;;;;3.00;3.00;;;;;23.42;36.46;101813.73;110469;1262;13900;-69
2022/09/06 09:41:55;;;;;;;;;3.00;3.00;;;;;23.42;36.58;101805.84;110437;1264;15228;-71
2022/09/06 09:44:26;;;;;;;;;3.00;3.00;;;;;23.45;36.59;101809.59;110503;1264;12217;-70
2022/09/06 09:46:54;;;;;;;;;5.00;3.00;;;;;23.42;36.76;101809.66;110452;1264;16786;-68
2022/09/06 09:49:23;;;;;;;;;3.00;3.00;;;;;23.48;36.65;101803.81;110317;1264;13567;-69
2022/09/06 09:51:50;;;;;;;;;3.67;3.67;;;;;23.47;36.64;101805.17;110389;1264;14545;-68
2022/09/06 09:54:17;;;;;;;;;3.00;3.00;;;;;23.46;36.60;101797.41;110443;1264;15212;-66
2022/09/06 09:56:45;;;;;;;;;3.00;3.00;;;;;23.44;36.62;101796.31;110424;1263;14181;-69
2022/09/06 09:59:12;;;;;;;;;3.00;3.00;;;;;23.46;36.53;101797.65;110455;1264;14952;-70
2022/09/06 10:01:40;;;;;;;;;4.33;4.33;;;;;23.45;36.44;101795.36;110442;1264;13402;-70
2022/09/06 10:04:07;;;;;;;;;5.00;5.00;;;;;23.43;36.50;101788.42;110415;1263;14152;-70
2022/09/06 10:06:34;;;;;;;;;5.00;4.00;;;;;23.37;36.21;101782.17;110391;1264;15008;-71
2022/09/06 10:09:01;;;;;;;;;5.00;3.00;;;;;23.15;35.56;101784.09;110375;1264;13979;-68
2022/09/06 10:11:30;;;;;;;;;5.00;5.00;;;;;23.15;35.98;101775.65;110282;1263;13602;-70
2022/09/06 10:13:58;;;;;;;;;5.00;4.33;;;;;23.29;35.99;101779.23;110417;1264;13367;-70
2022/09/06 10:16:25;;;;;;;;;3.00;3.00;;;;;23.46;36.16;101773.69;110282;1262;14349;-70
2022/09/06 10:18:52;;;;;;;;;5.00;5.00;;;;;23.51;36.14;101766.98;110332;1263;14384;-71
2022/09/06 10:21:22;;;;;;;;;3.00;3.00;;;;;23.52;36.16;101764.05;110403;1263;14535;-69
2022/09/06 10:23:50;;;;;;;;;3.00;3.00;;;;;23.52;36.35;101758.42;110398;1263;15005;-72
2022/09/06 10:26:17;;;;;;;;;2.00;2.00;;;;;23.53;36.35;101752.52;110402;1264;13983;-71
2022/09/06 10:28:45;;;;;;;;;3.00;3.00;;;;;23.47;36.05;101755.14;110439;1264;12685;-72
2022/09/06 10:31:12;;;;;;;;;5.00;5.00;;;;;23.26;35.66;101755.36;110414;1263;14930;-71
2022/09/06 10:33:39;;;;;;;;;4.33;4.33;;;;;22.58;34.62;101759.21;110388;1263;14563;-69
2022/09/06 10:36:07;;;;;;;;;3.00;3.00;;;;;22.21;35.02;101752.42;110406;1263;14110;-71
2022/09/06 10:38:35;;;;;;;;;3.00;3.00;;;;;22.55;35.00;101750.59;110365;1263;13824;-70
2022/09/06 10:41:02;;;;;;;;;3.00;3.00;;;;;22.76;34.83;101743.63;110449;1262;12797;-69
2022/09/06 10:43:29;;;;;;;;;3.00;3.00;;;;;22.94;34.78;101743.17;110453;1264;12997;-71
2022/09/06 10:45:57;;;;;;;;;3.00;3.00;;;;;23.05;34.78;101747.22;110431;1264;14735;-70
2022/09/06 10:48:25;;;;;;;;;50.67;44.33;;;;;23.11;34.98;101746.00;110434;1263;12939;-70
2022/09/06 10:50:52;;;;;;;;;86.00;67.00;;;;;23.10;34.73;101750.33;110476;1264;14248;-69
2022/09/06 10:53:20;;;;;;;;;74.00;59.33;;;;;23.06;34.90;101746.20;110477;1264;15748;-70
2022/09/06 10:55:48;;;;;;;;;53.67;44.33;;;;;23.21;35.18;101742.44;110486;1264;10499;-71
2022/09/06 10:58:15;;;;;;;;;43.33;38.33;;;;;23.31;35.29;101738.52;110397;1264;14333;-70
2022/09/06 11:00:45;;;;;;;;;35.33;31.00;;;;;23.30;35.25;101740.26;110441;1264;12747;-70
2022/09/06 11:03:12;;;;;;;;;17.33;16.67;;;;;23.31;35.25;101734.34;110410;1264;15307;-69
2022/09/06 11:05:39;;;;;;;;;12.33;11.33;;;;;23.22;35.10;101745.37;110418;1264;13672;-69
2022/09/06 11:08:07;;;;;;;;;10.00;10.00;;;;;22.99;34.81;101744.98;110450;1264;13418;-69
2022/09/06 11:10:34;;;;;;;;;11.00;10.00;;;;;22.94;34.88;101741.18;110417;1263;14416;-70
2022/09/06 11:13:01;;;;;;;;;7.00;7.00;;;;;23.00;34.75;101738.16;110424;1263;14614;-70
2022/09/06 11:15:29;;;;;;;;;7.00;7.00;;;;;23.02;34.73;101737.68;110390;1264;16059;-70
2022/09/06 11:17:57;;;;;;;;;5.00;5.00;;;;;22.97;34.66;101740.27;110436;1264;14930;-69
2022/09/06 11:20:24;;;;;;;;;3.00;3.00;;;;;22.96;34.68;101730.52;110449;1264;14152;-70
2022/09/06 11:22:51;;;;;;;;;5.33;5.33;;;;;23.00;34.77;101735.25;110430;1263;12912;-71
2022/09/06 11:25:18;;;;;;;;;3.00;3.00;;;;;23.02;34.73;101738.23;110336;1264;14421;-69
2022/09/06 11:27:46;;;;;;;;;4.33;4.33;;;;;23.02;34.80;101734.27;110414;1263;14891;-68
2022/09/06 11:30:13;;;;;;;;;3.00;3.00;;;;;23.07;34.81;101729.31;110256;1263;13200;-68
2022/09/06 11:32:42;;;;;;;;;3.00;3.00;;;;;23.03;34.77;101724.73;110374;1264;14061;-67
2022/09/06 11:35:09;;;;;;;;;5.00;5.00;;;;;23.01;34.81;101721.10;110344;1263;13342;-66
2022/09/06 11:37:38;;;;;;;;;3.00;3.00;;;;;23.06;34.95;101715.70;110386;1264;13809;-69
2022/09/06 11:40:05;;;;;;;;;3.00;3.00;;;;;23.16;34.97;101711.01;110400;1264;14287;-69
2022/09/06 11:42:33;;;;;;;;;2.50;2.50;;;;;23.24;34.96;101712.11;110391;1263;14362;-70
2022/09/06 11:45:00;;;;;;;;;3.00;3.00;;;;;23.28;35.15;101716.04;110380;1264;14462;-70
2022/09/06 11:47:28;;;;;;;;;3.00;3.00;;;;;23.33;35.33;101713.85;110385;1262;15499;-70
2022/09/06 11:49:55;;;;;;;;;2.00;2.00;;;;;23.37;35.49;101715.57;110433;1263;13126;-71
2022/09/06 11:52:22;;;;;;;;;2.33;2.00;;;;;23.39;35.57;101707.86;110376;1262;13128;-69
2022/09/06 11:54:49;;;;;;;;;3.00;3.00;;;;;23.40;35.66;101708.85;110356;1262;14393;-70
2022/09/06 11:57:17;;;;;;;;;3.00;2.00;;;;;23.43;35.92;101706.13;110287;1264;14861;-69
2022/09/06 11:59:44;;;;;;;;;4.00;4.00;;;;;23.43;35.90;101699.83;110369;1264;14105;-69
2022/09/06 12:02:11;;;;;;;;;5.00;5.00;;;;;23.31;35.39;101699.54;110212;1263;13211;-68
2022/09/06 12:04:39;;;;;;;;;3.00;2.00;;;;;22.92;34.90;101699.44;110327;1264;13483;-69
2022/09/06 12:07:06;;;;;;;;;4.33;4.33;;;;;22.49;34.79;101706.51;110344;1263;13655;-69
2022/09/06 12:09:33;;;;;;;;;5.00;3.67;;;;;22.40;35.11;101703.08;110307;1263;13470;-70
2022/09/06 12:12:00;;;;;;;;;3.00;3.00;;;;;22.35;35.62;101698.57;110333;1263;14478;-69
2022/09/06 12:14:28;;;;;;;;;4.00;3.00;;;;;22.61;35.37;101694.42;110331;1263;14659;-68
2022/09/06 12:16:55;;;;;;;;;5.00;5.00;;;;;22.52;35.13;101690.98;110400;1262;13322;-70
2022/09/06 12:19:22;;;;;;;;;3.00;3.00;;;;;22.56;35.21;101690.17;110341;1262;18047;-70
2022/09/06 12:21:51;;;;;;;;;3.00;3.00;;;;;22.77;35.31;101686.09;110376;1263;15360;-70
2022/09/06 12:24:18;;;;;;;;;2.00;2.00;;;;;23.00;35.41;101679.09;110359;1264;14266;-70
2022/09/06 12:26:47;;;;;;;;;3.00;2.00;;;;;23.19;35.44;101674.08;110257;1262;14476;-71
2022/09/06 12:29:14;;;;;;;;;3.00;2.00;;;;;23.29;35.61;101671.63;110430;1263;13099;-69
2022/09/06 12:31:41;;;;;;;;;2.00;2.00;;;;;23.39;36.07;101671.48;110390;1263;13071;-68
2022/09/06 12:34:08;;;;;;;;;3.00;3.00;;;;;23.42;36.36;101671.95;110356;1263;14899;-70
2022/09/06 12:36:36;;;;;;;;;2.00;2.00;;;;;23.26;36.01;101668.20;110394;1263;13763;-68
2022/09/06 12:39:03;;;;;;;;;6.00;5.00;;;;;23.04;35.99;101668.38;110426;1262;14656;-69
2022/09/06 12:41:31;;;;;;;;;3.00;3.00;;;;;22.79;35.55;101664.04;110341;1263;14182;-69
2022/09/06 12:43:58;;;;;;;;;3.00;3.00;;;;;22.11;35.33;101667.91;110373;1264;13213;-69
2022/09/06 12:46:25;;;;;;;;;2.67;2.67;;;;;22.21;35.59;101665.38;110377;1264;14887;-70
2022/09/06 12:48:52;;;;;;;;;3.00;3.00;;;;;22.51;35.38;101664.86;110345;1263;13924;-68
2022/09/06 12:51:20;;;;;;;;;5.00;3.00;;;;;22.67;35.28;101660.45;110276;1264;14579;-68
2022/09/06 12:53:47;;;;;;;;;2.00;2.00;;;;;22.75;35.13;101656.88;110337;1263;14494;-68
2022/09/06 12:56:15;;;;;;;;;3.00;3.00;;;;;22.82;35.18;101651.49;110301;1263;13299;-69
2022/09/06 12:58:42;;;;;;;;;3.00;2.67;;;;;22.84;34.98;101646.38;110309;1264;12984;-69
2022/09/06 13:01:09;;;;;;;;;2.00;2.00;;;;;22.85;34.88;101648.39;110383;1264;14123;-69
2022/09/06 13:03:36;;;;;;;;;2.67;2.67;;;;;22.85;34.91;101644.61;110263;1264;13402;-69
2022/09/06 13:06:04;;;;;;;;;2.00;2.00;;;;;22.85;34.73;101636.23;110370;1264;14377;-68
2022/09/06 13:08:31;;;;;;;;;3.00;3.00;;;;;22.80;34.69;101643.54;110310;1264;16130;-68
2022/09/06 13:10:58;;;;;;;;;3.00;3.00;;;;;22.78;34.75;101640.48;110314;1264;13119;-68
2022/09/06 13:13:26;;;;;;;;;3.00;3.00;;;;;22.79;34.69;101636.55;110267;1265;14475;-69
2022/09/06 13:15:53;;;;;;;;;3.00;3.00;;;;;22.76;34.66;101630.77;110351;1264;14105;-69
2022/09/06 13:18:20;;;;;;;;;3.00;2.67;;;;;22.78;34.64;101630.77;110383;1264;13269;-69
2022/09/06 13:20:47;;;;;;;;;2.00;2.00;;;;;22.69;34.56;101622.33;110329;1264;12792;-69
2022/09/06 13:23:15;;;;;;;;;3.00;3.00;;;;;22.75;34.54;101620.35;110355;1264;13262;-69
2022/09/06 13:25:42;;;;;;;;;3.00;3.00;;;;;22.78;34.59;101614.35;110232;1265;13151;-66
2022/09/06 13:28:09;;;;;;;;;3.00;3.00;;;;;22.89;35.02;101611.38;110339;1264;12939;-67
2022/09/06 13:30:37;;;;;;;;;3.00;3.00;;;;;23.01;35.01;101610.02;110366;1264;16554;-69
2022/09/06 13:33:04;;;;;;;;;2.00;2.00;;;;;23.01;34.93;101604.52;110112;1264;13764;-71
2022/09/06 13:35:33;;;;;;;;;7.33;6.33;;;;;23.07;35.08;101608.04;110262;1264;14366;-69
2022/09/06 13:38:00;;;;;;;;;38.33;28.33;;;;;23.09;35.25;101606.36;110233;1264;13091;-72
2022/09/06 13:40:28;;;;;;;;;36.67;31.33;;;;;23.11;35.49;101607.82;110237;1264;13451;-71
2022/09/06 13:42:56;;;;;;;;;46.67;38.33;;;;;23.11;35.27;101607.38;110291;1264;15040;-69
2022/09/06 13:45:23;;;;;;;;;34.33;30.00;;;;;23.16;35.93;101608.01;110306;1264;14871;-69
2022/09/06 13:47:51;;;;;;;;;27.67;25.67;;;;;23.21;37.31;101610.39;110311;1264;14553;-71
2022/09/06 13:50:18;;;;;;;;;21.33;18.67;;;;;23.21;38.03;101609.13;110312;1264;14325;-69
2022/09/06 13:52:45;;;;;;;;;23.50;18.00;;;;;23.25;38.47;101610.07;110229;1265;10959;-71
2022/09/06 13:55:12;;;;;;;;;18.33;17.00;;;;;23.28;38.73;101606.98;110299;1264;14535;-70
2022/09/06 13:57:40;;;;;;;;;22.00;17.00;;;;;23.32;38.79;101602.58;110304;1264;13901;-72
2022/09/06 14:00:07;;;;;;;;;15.00;12.00;;;;;23.31;38.73;101595.56;110287;1264;14166;-72
2022/09/06 14:02:34;;;;;;;;;6.33;6.33;;;;;23.32;38.89;101591.02;110347;1263;13531;-71
2022/09/06 14:05:02;;;;;;;;;7.67;7.00;;;;;23.33;38.92;101594.20;110342;1263;13091;-72
2022/09/06 14:07:29;;;;;;;;;7.00;7.00;;;;;23.31;38.97;101592.23;110194;1264;14386;-71
2022/09/06 14:09:58;;;;;;;;;5.00;5.00;;;;;23.29;38.72;101584.97;110221;1263;14729;-71
2022/09/06 14:12:26;;;;;;;;;3.00;3.00;;;;;23.20;38.49;101584.73;110257;1265;16050;-71
2022/09/06 14:14:54;;;;;;;;;3.00;3.00;;;;;23.17;38.41;101585.64;110357;1264;13169;-72
2022/09/06 14:17:21;;;;;;;;;5.00;5.00;;;;;23.23;38.12;101584.09;110356;1263;19172;-70
2022/09/06 14:19:48;;;;;;;;;6.33;5.00;;;;;23.11;37.55;101580.80;110382;1264;13086;-71
2022/09/06 14:22:16;;;;;;;;;6.00;6.00;;;;;23.12;37.61;101576.48;110366;1263;13948;-72
2022/09/06 14:24:44;;;;;;;;;5.00;4.33;;;;;23.11;37.33;101576.14;110341;1264;12922;-69
2022/09/06 14:27:11;;;;;;;;;3.00;3.00;;;;;23.14;37.22;101568.27;110401;1264;13678;-71
2022/09/06 14:29:38;;;;;;;;;6.67;6.00;;;;;23.19;37.15;101567.52;110395;1263;13511;-72
2022/09/06 14:32:06;;;;;;;;;3.00;3.00;;;;;23.24;36.97;101568.06;110380;1264;12976;-69
2022/09/06 14:34:33;;;;;;;;;6.00;6.00;;;;;23.29;36.77;101565.34;110361;1264;13716;-70
2022/09/06 14:37:00;;;;;;;;;3.00;3.00;;;;;23.24;36.37;101564.22;110333;1263;14432;-69
2022/09/06 14:39:28;;;;;;;;;3.67;3.67;;;;;23.28;36.34;101565.83;110338;1264;14712;-67
2022/09/06 14:41:55;;;;;;;;;2.33;2.33;;;;;23.16;36.22;101561.89;110380;1264;16829;-69
2022/09/06 14:44:23;;;;;;;;;4.33;3.00;;;;;23.08;36.14;101562.15;110351;1264;14370;-69
2022/09/06 14:46:52;;;;;;;;;3.00;3.00;;;;;23.09;36.03;101562.10;110398;1264;17951;-69
2022/09/06 14:49:20;;;;;;;;;7.00;5.67;;;;;23.05;35.74;101562.73;110397;1263;14361;-70
2022/09/06 14:51:48;;;;;;;;;8.00;8.00;;;;;23.02;35.63;101564.21;110416;1264;14574;-70
2022/09/06 14:54:15;;;;;;;;;5.33;5.33;;;;;22.93;35.66;101564.09;110339;1264;14876;-68
2022/09/06 14:56:42;;;;;;;;;5.00;5.00;;;;;22.94;35.90;101561.77;110349;1263;15201;-70
2022/09/06 14:59:10;;;;;;;;;5.67;5.00;;;;;23.01;35.87;101560.12;110397;1264;12979;-70
2022/09/06 15:01:38;;;;;;;;;4.33;4.33;;;;;23.03;35.90;101556.36;110304;1264;13906;-69
2022/09/06 15:04:05;;;;;;;;;3.00;3.00;;;;;23.07;35.76;101559.77;110371;1264;15076;-69
2022/09/06 15:06:33;;;;;;;;;5.00;5.00;;;;;23.15;35.78;101558.15;110332;1264;13371;-70
2022/09/06 15:09:01;;;;;;;;;5.33;5.33;;;;;23.14;35.72;101553.71;110370;1263;14576;-69
2022/09/06 15:11:29;;;;;;;;;4.33;4.33;;;;;23.11;35.90;101557.34;110318;1264;14324;-69
2022/09/06 15:13:57;;;;;;;;;3.67;3.00;;;;;23.13;35.82;101553.83;110374;1263;13122;-70
2022/09/06 15:16:24;;;;;;;;;3.67;3.67;;;;;23.17;35.85;101554.29;110354;1264;16568;-70
2022/09/06 15:18:51;;;;;;;;;4.33;4.33;;;;;23.16;35.81;101553.34;110352;1264;15451;-71
2022/09/06 15:21:19;;;;;;;;;3.00;3.00;;;;;23.13;35.96;101550.53;110392;1263;14151;-71
2022/09/06 15:23:46;;;;;;;;;5.00;5.00;;;;;23.19;36.08;101550.98;110383;1264;14679;-71
2022/09/06 15:26:14;;;;;;;;;3.00;3.00;;;;;23.19;36.12;101547.80;110382;1264;13122;-70
2022/09/06 15:28:42;;;;;;;;;5.50;5.50;;;;;23.18;35.93;101544.17;110309;1262;15223;-70
2022/09/06 15:31:09;;;;;;;;;5.00;5.00;;;;;23.12;35.84;101544.25;110379;1264;12747;-70
2022/09/06 15:33:36;;;;;;;;;4.33;4.33;;;;;23.11;35.95;101538.40;110395;1263;14967;-70
2022/09/06 15:36:05;;;;;;;;;4.33;3.00;;;;;23.11;35.99;101542.73;110357;1264;14105;-70
2022/09/06 15:38:33;;;;;;;;;5.00;5.00;;;;;23.17;36.10;101537.14;110396;1264;15255;-70
2022/09/06 15:41:00;;;;;;;;;4.33;2.67;;;;;23.18;36.02;101535.21;110378;1262;12325;-70
2022/09/06 15:43:27;;;;;;;;;5.00;5.00;;;;;23.15;35.93;101535.49;110403;1264;13298;-70
2022/09/06 15:45:55;;;;;;;;;3.00;3.00;;;;;23.18;35.98;101533.13;110397;1264;13433;-70
2022/09/06 15:48:22;;;;;;;;;5.00;5.00;;;;;23.18;35.75;101528.48;110361;1262;14211;-68
2022/09/06 15:50:50;;;;;;;;;3.00;3.00;;;;;23.15;35.90;101526.36;110416;1264;15135;-70
2022/09/06 15:53:17;;;;;;;;;3.00;3.00;;;;;23.25;35.92;101524.98;110413;1263;13221;-68
2022/09/06 15:55:56;;;;;;;;;4.33;4.33;;;;;23.34;36.04;101520.47;110471;1262;13907;-68
2022/09/06 15:58:24;;;;;;;;;3.00;3.00;;;;;23.37;36.04;101525.80;110488;1261;14376;-70
2022/09/06 16:00:51;;;;;;;;;2.00;2.00;;;;;23.40;36.07;101516.48;110445;1262;13554;-69
2022/09/06 16:03:18;;;;;;;;;3.00;2.33;;;;;23.41;36.17;101509.81;110408;1262;13018;-70
2022/09/06 16:05:46;;;;;;;;;3.00;3.00;;;;;23.40;36.22;101507.73;110378;1264;15336;-69